バクー の空港の天気 - METARとTAF

ヘイダル・アリエフ国際空港(バクー) ( UBBB / BAK ) - アゼルバイジャン バクー
飛行場実況気象(Metar)
観測時間08/11 10:30 AZT (08/11 06:30 UTC)
風向・風速北 6m/s
視程10km以上
天気現象
なし
気温29℃
湿度48%
気圧1009hPa
METARUBBB 110630Z 01012KT CAVOK 29/17 Q1009 R88/D NOSIG
過去の天気等 Google飛行場航空写真 Wunderground天気予報

過去48時間のMETAR

飛行場予報(TAF)
発表時間: 8/11 09:10 AZT (8/11 05:10 UTC)
予報対象時間: 11日10時 AZT ~ 12日10時 AZT
風向・風速北北東 8m/s 瞬間風速 13m/s
視程10km以上
なし
11日12時 AZT ~ 11日24時 AZT に一時的に
風向・風速北北西 7m/s
少しの積乱雲 雲底高度 1520m
12日0時 AZT ~ 12日2時 AZT に徐々に
風向・風速北 11m/s 瞬間風速 16m/s
少しの雲 雲底高度 910m
12日2時 AZT ~ 12日10時 AZT に一時的に
全天の4割程度の雲 雲底高度 370m
TAF UBBB 110510Z 1106/1206 02016G26KT CAVOK TX30/1110Z TN20/1201Z
TEMPO 1108/1120 34014KT FEW050CB
BECMG 1120/1122 35022G32KT FEW030
TEMPO 1122/1206 SCT012